createdAt,value
2017-09-04T00:02:12.727Z,72.61
2017-09-04T00:04:40.217Z,72.17
2017-09-04T00:07:07.665Z,72.09
2017-09-04T00:09:35.129Z,72.21
2017-09-04T00:12:02.591Z,72.34
2017-09-04T00:14:30.066Z,72.15
2017-09-04T00:16:58.244Z,72.23
2017-09-04T00:19:26.851Z,72.15
2017-09-04T00:21:54.331Z,72.05
2017-09-04T00:24:21.804Z,72.03
2017-09-04T00:26:49.311Z,71.99
2017-09-04T00:29:16.761Z,71.84
2017-09-04T00:31:44.250Z,71.59
2017-09-04T00:34:11.696Z,71.33
2017-09-04T00:36:39.206Z,71.43
2017-09-04T00:39:06.710Z,72.11
2017-09-04T00:41:34.170Z,72.16
2017-09-04T00:44:01.665Z,72.02
2017-09-04T00:46:29.126Z,71.94
2017-09-04T00:48:56.634Z,71.93
2017-09-04T00:51:24.084Z,71.57
2017-09-04T00:53:51.574Z,71.68
2017-09-04T00:56:19.034Z,71.74
2017-09-04T00:58:46.520Z,72.24
2017-09-04T01:01:14.045Z,72.31
2017-09-04T01:03:41.512Z,72.64
2017-09-04T01:06:08.989Z,73.22
2017-09-04T01:08:36.451Z,73.40
2017-09-04T01:11:04.240Z,73.74
2017-09-04T01:13:31.721Z,74.12
2017-09-04T01:15:59.232Z,73.88
2017-09-04T01:18:26.707Z,73.41
2017-09-04T01:20:54.187Z,73.20
2017-09-04T01:23:21.673Z,72.80
2017-09-04T01:25:49.128Z,72.67
2017-09-04T01:28:16.611Z,72.40
2017-09-04T01:30:44.090Z,71.92
2017-09-04T01:33:11.561Z,71.64
2017-09-04T01:35:39.022Z,71.69
2017-09-04T01:38:06.494Z,71.80
2017-09-04T01:40:33.942Z,71.88
2017-09-04T01:43:01.553Z,71.84
2017-09-04T01:45:28.998Z,71.96
2017-09-04T01:47:56.503Z,71.76
2017-09-04T01:50:23.987Z,72.11
2017-09-04T01:52:51.443Z,71.89
2017-09-04T01:55:18.932Z,72.14
2017-09-04T01:57:46.391Z,72.29
2017-09-04T02:00:13.866Z,72.25
2017-09-04T02:02:41.325Z,72.67
2017-09-04T02:05:08.812Z,73.10
2017-09-04T02:07:36.274Z,72.98
2017-09-04T02:10:03.871Z,72.52
2017-09-04T02:12:31.330Z,72.23
2017-09-04T02:14:58.777Z,72.29
2017-09-04T02:17:26.269Z,72.45
2017-09-04T02:19:53.742Z,71.90
2017-09-04T02:22:21.333Z,72.06
2017-09-04T02:24:48.827Z,72.25
2017-09-04T02:27:16.319Z,72.82
2017-09-04T02:29:43.781Z,72.62
2017-09-04T02:32:11.279Z,72.39
2017-09-04T02:34:38.776Z,72.05
2017-09-04T02:37:06.415Z,72.22
2017-09-04T02:39:33.875Z,72.33
2017-09-04T02:42:01.339Z,72.29
2017-09-04T02:44:28.830Z,71.95
2017-09-04T02:46:56.318Z,72.17
2017-09-04T02:49:23.802Z,72.21
2017-09-04T02:51:51.279Z,72.37
2017-09-04T02:54:18.770Z,72.45
2017-09-04T02:56:46.252Z,72.53
2017-09-04T02:59:13.800Z,73.17
2017-09-04T03:01:41.331Z,73.11
2017-09-04T03:04:08.782Z,72.96
2017-09-04T03:06:36.273Z,73.42
2017-09-04T03:09:03.734Z,73.76
2017-09-04T03:11:31.238Z,74.11
2017-09-04T03:13:58.756Z,73.95
2017-09-04T03:16:26.230Z,73.85
2017-09-04T03:18:53.694Z,73.66
2017-09-04T03:21:21.297Z,73.44
2017-09-04T03:23:48.760Z,73.13
2017-09-04T03:26:16.208Z,72.91
2017-09-04T03:28:43.698Z,72.66
2017-09-04T03:31:11.154Z,72.81
2017-09-04T03:33:38.642Z,72.89
2017-09-04T03:36:06.101Z,73.29
2017-09-04T03:38:33.578Z,73.34
2017-09-04T03:41:01.056Z,73.34
2017-09-04T03:43:28.546Z,74.17
2017-09-04T03:45:56.010Z,74.19
2017-09-04T03:48:23.511Z,74.04
2017-09-04T03:50:50.987Z,74.06
2017-09-04T03:53:18.482Z,73.33
2017-09-04T03:55:45.944Z,72.92
2017-09-04T03:58:13.600Z,72.79
2017-09-04T04:00:41.058Z,72.77
2017-09-04T04:03:08.524Z,72.81
2017-09-04T04:05:36.021Z,72.97
2017-09-04T04:08:03.501Z,72.97
2017-09-04T04:10:31.003Z,73.17
2017-09-04T04:12:58.458Z,72.94
2017-09-04T04:15:25.947Z,73.40
2017-09-04T04:17:53.406Z,73.78
2017-09-04T04:20:20.904Z,74.02
2017-09-04T04:22:48.397Z,73.84
2017-09-04T04:25:15.895Z,73.22
2017-09-04T04:27:43.366Z,73.11
2017-09-04T04:30:10.858Z,73.11
2017-09-04T04:32:38.309Z,73.05
2017-09-04T04:35:05.818Z,72.98
2017-09-04T04:37:33.279Z,72.96
2017-09-04T04:40:00.774Z,73.07
2017-09-04T04:42:28.245Z,73.83
2017-09-04T04:44:55.698Z,74.09
2017-09-04T04:47:23.205Z,73.85
2017-09-04T04:49:50.671Z,73.87
2017-09-04T04:52:18.147Z,74.05
2017-09-04T04:54:45.602Z,73.92
2017-09-04T04:57:13.087Z,73.85
2017-09-04T04:59:40.551Z,73.17
2017-09-04T05:02:08.030Z,73.11
2017-09-04T05:04:35.500Z,72.80
2017-09-04T05:07:03.005Z,72.86
2017-09-04T05:09:30.508Z,72.76
2017-09-04T05:11:58.006Z,72.62
2017-09-04T05:14:25.501Z,72.96
2017-09-04T05:16:52.967Z,73.20
2017-09-04T05:19:20.459Z,72.95
2017-09-04T05:21:47.914Z,72.58
2017-09-04T05:24:15.405Z,72.53
2017-09-04T05:26:42.862Z,72.64
2017-09-04T05:29:10.335Z,72.19
2017-09-04T05:31:37.863Z,72.27
2017-09-04T05:34:05.387Z,72.41
2017-09-04T05:36:32.878Z,72.62
2017-09-04T05:39:00.343Z,72.51
2017-09-04T05:41:27.825Z,72.67
2017-09-04T05:43:55.273Z,72.89
2017-09-04T05:46:22.768Z,72.96
2017-09-04T05:48:50.237Z,72.82
2017-09-04T05:51:17.732Z,72.99
2017-09-04T05:53:45.253Z,72.67
2017-09-04T05:58:40.025Z,71.87
2017-09-04T06:01:07.516Z,71.62
2017-09-04T06:03:35.572Z,71.59
2017-09-04T06:06:03.045Z,71.90
2017-09-04T06:08:30.525Z,71.78
2017-09-04T06:10:58.757Z,71.90
2017-09-04T06:13:26.270Z,71.78
2017-09-04T06:15:53.747Z,71.71
2017-09-04T06:18:21.211Z,71.56
2017-09-04T06:20:48.690Z,71.71
2017-09-04T06:23:16.136Z,71.50
2017-09-04T06:25:43.623Z,71.33
2017-09-04T06:28:11.110Z,71.18
2017-09-04T06:30:38.590Z,71.62
2017-09-04T06:33:06.056Z,72.23
2017-09-04T06:35:33.551Z,71.97
2017-09-04T06:38:01.019Z,71.80
2017-09-04T06:40:28.512Z,71.93
2017-09-04T06:42:55.981Z,71.28
2017-09-04T06:45:23.489Z,72.35
2017-09-04T06:47:50.967Z,72.83
2017-09-04T06:50:18.565Z,72.62
2017-09-04T06:52:46.065Z,72.68
2017-09-04T06:55:13.560Z,72.23
2017-09-04T06:57:41.042Z,72.50
2017-09-04T07:00:08.559Z,72.71
2017-09-04T07:02:36.051Z,72.94
2017-09-04T07:05:03.497Z,72.84
2017-09-04T07:07:31.014Z,72.42
2017-09-04T07:09:58.606Z,72.19
2017-09-04T07:12:26.094Z,71.52
2017-09-04T07:14:53.573Z,71.25
2017-09-04T07:17:21.066Z,71.02
2017-09-04T07:19:48.554Z,70.80
2017-09-04T07:22:16.062Z,70.80
2017-09-04T07:24:43.569Z,70.22
2017-09-04T07:27:11.125Z,70.28
2017-09-04T07:29:38.621Z,70.51
2017-09-04T07:32:06.097Z,70.47
2017-09-04T07:34:33.623Z,69.97
2017-09-04T07:37:01.138Z,69.80
2017-09-04T07:39:28.630Z,69.73
2017-09-04T07:41:56.085Z,69.83
2017-09-04T07:44:23.544Z,69.50
2017-09-04T07:46:51.041Z,68.88
2017-09-04T07:49:18.530Z,68.76
2017-09-04T07:51:50.739Z,68.61
2017-09-04T07:54:18.256Z,68.07
2017-09-04T07:56:46.544Z,67.36
2017-09-04T07:59:14.044Z,66.84
2017-09-04T08:01:41.497Z,66.20
2017-09-04T08:04:08.983Z,65.45
2017-09-04T08:06:36.480Z,65.19
2017-09-04T08:09:03.979Z,64.96
2017-09-04T08:11:31.507Z,64.66
2017-09-04T08:13:58.985Z,64.27
2017-09-04T08:16:26.472Z,63.99
2017-09-04T08:18:53.989Z,63.68
2017-09-04T08:21:21.581Z,63.31
2017-09-04T08:23:49.058Z,62.40
2017-09-04T08:26:16.526Z,62.33
2017-09-04T08:28:44.047Z,62.31
2017-09-04T08:31:12.414Z,62.24
2017-09-04T08:33:39.905Z,62.22
2017-09-04T08:36:08.099Z,62.45
2017-09-04T08:38:35.623Z,62.26
2017-09-04T08:41:03.089Z,62.53
2017-09-04T08:43:30.622Z,62.29
2017-09-04T08:45:58.150Z,61.69
2017-09-04T08:48:25.627Z,61.09
2017-09-04T08:50:53.142Z,59.92
2017-09-04T08:53:20.640Z,60.01
2017-09-04T08:55:48.143Z,59.67
2017-09-04T08:58:15.603Z,59.44
2017-09-04T09:00:43.103Z,58.62
2017-09-04T09:03:10.566Z,57.98
2017-09-04T09:05:38.091Z,57.10
2017-09-04T09:08:05.578Z,57.39
2017-09-04T09:10:33.079Z,57.13
2017-09-04T09:13:00.562Z,56.81
2017-09-04T09:15:28.084Z,56.52
2017-09-04T09:17:55.649Z,56.33
2017-09-04T09:20:23.168Z,56.12
2017-09-04T09:22:50.771Z,55.74
2017-09-04T09:25:18.342Z,55.47
2017-09-04T09:27:45.884Z,55.21
2017-09-04T09:30:14.671Z,54.41
2017-09-04T09:32:42.295Z,56.73
2017-09-04T09:35:09.810Z,56.83
2017-09-04T09:40:14.177Z,55.69
2017-09-04T09:42:41.655Z,54.77
2017-09-04T09:45:09.170Z,54.98
2017-09-04T09:47:36.684Z,53.83
2017-09-04T09:50:04.243Z,54.91
2017-09-04T09:52:31.762Z,54.81
2017-09-04T09:54:59.257Z,55.63
2017-09-04T09:57:26.779Z,55.57
2017-09-04T09:59:54.327Z,54.83
2017-09-04T10:02:21.883Z,54.75
2017-09-04T10:04:49.385Z,53.59
2017-09-04T10:07:16.881Z,52.52
2017-09-04T10:09:44.519Z,53.74
2017-09-04T10:12:11.982Z,52.93
2017-09-04T10:14:39.471Z,54.09
2017-09-04T10:17:06.932Z,54.03
2017-09-04T10:19:34.455Z,52.87
2017-09-04T10:22:01.933Z,51.96
2017-09-04T10:24:29.444Z,52.99
2017-09-04T10:26:57.535Z,53.43
2017-09-04T10:29:25.172Z,53.54
2017-09-04T10:31:52.665Z,53.82
2017-09-04T10:34:20.165Z,52.34
2017-09-04T10:36:47.674Z,50.25
2017-09-04T10:39:15.148Z,52.09
2017-09-04T10:41:42.781Z,51.87
2017-09-04T10:44:10.293Z,52.51
2017-09-04T10:46:37.850Z,52.45
2017-09-04T10:49:05.720Z,50.96
2017-09-04T10:51:33.197Z,50.07
2017-09-04T10:54:00.726Z,51.08
2017-09-04T10:56:28.208Z,50.82
2017-09-04T10:58:55.768Z,51.36
2017-09-04T11:01:23.266Z,50.58
2017-09-04T11:03:50.777Z,50.22
2017-09-04T11:06:18.353Z,49.90
2017-09-04T11:08:46.431Z,50.43
2017-09-04T11:11:13.898Z,49.58
2017-09-04T11:13:41.394Z,50.08
2017-09-04T11:16:08.890Z,49.09
2017-09-04T11:18:36.389Z,49.03
2017-09-04T11:21:05.232Z,48.89
2017-09-04T11:23:32.992Z,48.27
2017-09-04T11:26:00.545Z,48.35
2017-09-04T11:28:28.073Z,48.97
2017-09-04T11:30:55.575Z,48.28
2017-09-04T11:33:23.073Z,48.72
2017-09-04T11:35:50.549Z,48.85
2017-09-04T11:38:18.018Z,48.59
2017-09-04T11:40:46.477Z,49.10
2017-09-04T11:43:13.965Z,48.99
2017-09-04T11:45:41.414Z,47.83
2017-09-04T11:48:08.926Z,48.11
2017-09-04T11:50:36.414Z,48.04
2017-09-04T11:53:04.061Z,47.49
2017-09-04T11:55:31.550Z,48.31
2017-09-04T11:57:59.026Z,47.53
2017-09-04T12:00:26.534Z,47.68
2017-09-04T12:02:53.989Z,47.69
2017-09-04T12:05:21.494Z,48.04
2017-09-04T12:07:48.934Z,48.11
2017-09-04T12:10:16.441Z,48.57
2017-09-04T12:12:43.937Z,48.34
2017-09-04T12:15:11.517Z,47.25
2017-09-04T12:17:38.987Z,46.89
2017-09-04T12:20:06.453Z,48.05
2017-09-04T12:22:34.039Z,47.10
2017-09-04T12:25:01.512Z,46.25
2017-09-04T12:27:29.023Z,46.64
2017-09-04T12:29:57.123Z,46.47
2017-09-04T12:32:24.632Z,46.41
2017-09-04T12:34:52.156Z,46.80
2017-09-04T12:37:19.616Z,46.67
2017-09-04T12:39:47.091Z,46.86
2017-09-04T12:42:14.568Z,46.33
2017-09-04T12:44:42.082Z,47.88
2017-09-04T12:47:09.556Z,47.08
2017-09-04T12:49:37.037Z,47.07
2017-09-04T12:52:04.490Z,46.76
2017-09-04T12:54:31.982Z,48.32
2017-09-04T12:56:59.441Z,47.41
2017-09-04T12:59:26.949Z,45.53
2017-09-04T13:01:54.454Z,45.47
2017-09-04T13:04:21.926Z,45.17
2017-09-04T13:06:49.404Z,44.35
2017-09-04T13:09:16.909Z,46.29
2017-09-04T13:11:49.973Z,47.00
2017-09-04T13:14:22.991Z,45.13
2017-09-04T13:16:56.167Z,46.27
2017-09-04T13:19:25.587Z,46.02
2017-09-04T13:21:58.550Z,46.76
2017-09-04T13:24:31.682Z,44.45
2017-09-04T13:27:07.527Z,45.73
2017-09-04T13:29:40.399Z,45.63
2017-09-04T13:35:14.741Z,46.10
2017-09-04T13:37:47.810Z,44.29
2017-09-04T13:40:16.105Z,45.67
2017-09-04T13:42:49.158Z,45.80
2017-09-04T13:45:22.209Z,45.40
2017-09-04T13:51:01.696Z,45.89
2017-09-04T13:53:34.962Z,46.48
2017-09-04T13:59:08.008Z,44.72
2017-09-04T14:04:44.396Z,46.30
2017-09-04T14:07:27.869Z,46.54
2017-09-04T14:09:58.774Z,46.39
2017-09-04T14:15:42.022Z,45.99
2017-09-04T14:18:09.535Z,46.32
2017-09-04T14:20:37.062Z,47.56
2017-09-04T14:23:04.581Z,48.08
2017-09-04T14:25:32.555Z,46.59
2017-09-04T14:28:00.056Z,46.88
2017-09-04T14:30:27.542Z,47.32
2017-09-04T14:32:55.045Z,47.55
2017-09-04T14:35:22.571Z,47.75
2017-09-04T14:37:50.060Z,47.51
2017-09-04T14:40:23.014Z,46.76
2017-09-04T14:42:50.794Z,47.64
2017-09-04T14:45:30.090Z,49.06
2017-09-04T14:47:57.837Z,49.70
2017-09-04T14:50:25.910Z,50.23
2017-09-04T14:52:53.394Z,50.23
2017-09-04T14:55:20.877Z,49.77
2017-09-04T14:57:48.337Z,48.61
2017-09-04T15:00:15.828Z,48.78
2017-09-04T15:02:43.304Z,49.28
2017-09-04T15:05:10.975Z,49.33
2017-09-04T15:07:38.435Z,48.06
2017-09-04T15:10:06.798Z,48.76
2017-09-04T15:12:34.333Z,46.64
2017-09-04T15:15:01.804Z,48.02
2017-09-04T15:17:29.288Z,49.27
2017-09-04T15:19:56.775Z,47.85
2017-09-04T15:22:24.268Z,44.87
2017-09-04T15:24:51.760Z,46.79
2017-09-04T15:27:20.468Z,46.69
2017-09-04T15:29:47.939Z,46.02
2017-09-04T15:32:15.443Z,49.80
2017-09-04T15:34:42.928Z,55.27
2017-09-04T15:37:10.409Z,48.36
2017-09-04T15:39:37.892Z,48.45
2017-09-04T15:42:05.341Z,47.79
2017-09-04T15:44:32.818Z,48.13
2017-09-04T15:47:00.266Z,49.44
2017-09-04T15:49:28.040Z,49.56
2017-09-04T15:51:55.527Z,49.12
2017-09-04T15:54:22.994Z,49.17
2017-09-04T15:56:50.482Z,49.22
2017-09-04T15:59:17.963Z,49.44
2017-09-04T16:01:45.432Z,48.91
2017-09-04T16:04:13.042Z,49.17
2017-09-04T16:06:43.049Z,49.41
2017-09-04T16:09:10.519Z,49.06
2017-09-04T16:11:38.112Z,49.20
2017-09-04T16:14:06.313Z,49.43
2017-09-04T16:16:48.662Z,49.57
2017-09-04T16:19:18.078Z,49.47
2017-09-04T16:24:49.773Z,49.75
2017-09-04T16:27:20.181Z,49.32
2017-09-04T16:29:50.217Z,49.56
2017-09-04T16:32:18.517Z,49.70
2017-09-04T16:35:02.679Z,49.29
2017-09-04T16:40:35.506Z,49.44
2017-09-04T16:46:05.307Z,49.80
2017-09-04T16:48:38.387Z,49.75
2017-09-04T16:54:07.960Z,49.80
2017-09-04T16:59:40.467Z,50.20
2017-09-04T17:02:07.978Z,50.51
2017-09-04T17:04:35.447Z,50.54
2017-09-04T17:07:02.946Z,50.36
2017-09-04T17:09:30.428Z,50.56
2017-09-04T17:12:00.707Z,50.92
2017-09-04T17:14:28.224Z,51.10
2017-09-04T17:16:55.722Z,51.26
2017-09-04T17:19:38.086Z,52.10
2017-09-04T17:22:11.227Z,52.07
2017-09-04T17:24:44.312Z,51.76
2017-09-04T17:27:11.767Z,51.83
2017-09-04T17:29:39.913Z,51.79
2017-09-04T17:32:07.498Z,51.87
2017-09-04T17:34:35.081Z,51.85
2017-09-04T17:37:02.564Z,51.94
2017-09-04T17:39:30.039Z,52.00
2017-09-04T17:41:57.524Z,52.12
2017-09-04T17:44:24.993Z,52.12
2017-09-04T17:46:52.479Z,52.17
2017-09-04T17:49:19.958Z,52.32
2017-09-04T17:51:47.449Z,52.32
2017-09-04T17:54:14.925Z,52.29
2017-09-04T17:56:42.387Z,52.40
2017-09-04T17:59:09.875Z,52.34
2017-09-04T18:01:37.355Z,52.38
2017-09-04T18:04:04.868Z,52.35
2017-09-04T18:06:32.463Z,52.32
2017-09-04T18:09:00.638Z,52.46
2017-09-04T18:11:28.714Z,52.40
2017-09-04T18:13:56.212Z,52.43
2017-09-04T18:16:23.693Z,52.42
2017-09-04T18:18:51.207Z,52.54
2017-09-04T18:21:18.674Z,52.58
2017-09-04T18:23:46.137Z,52.61
2017-09-04T18:26:13.610Z,52.76
2017-09-04T18:28:41.067Z,52.84
2017-09-04T18:31:08.555Z,52.83
2017-09-04T18:33:36.015Z,52.81
2017-09-04T18:36:03.519Z,52.97
2017-09-04T18:38:30.964Z,53.15
2017-09-04T18:40:58.442Z,53.34
2017-09-04T18:43:25.918Z,53.37
2017-09-04T18:45:53.405Z,53.44
2017-09-04T18:48:20.877Z,53.45
2017-09-04T18:50:48.360Z,53.50
2017-09-04T18:53:15.841Z,53.50
2017-09-04T18:55:43.290Z,53.62
2017-09-04T18:58:10.774Z,53.58
2017-09-04T19:00:38.308Z,53.52
2017-09-04T19:03:05.808Z,53.60
2017-09-04T19:05:33.266Z,53.74
2017-09-04T19:08:00.771Z,53.77
2017-09-04T19:10:28.217Z,53.73
2017-09-04T19:12:55.693Z,53.97
2017-09-04T19:15:23.177Z,53.98
2017-09-04T19:17:50.644Z,54.13
2017-09-04T19:20:18.214Z,54.07
2017-09-04T19:22:45.674Z,53.95
2017-09-04T19:25:13.372Z,53.82
2017-09-04T19:27:40.860Z,53.96
2017-09-04T19:30:08.350Z,54.23
2017-09-04T19:32:35.818Z,54.22
2017-09-04T19:35:03.420Z,54.29
2017-09-04T19:37:30.980Z,54.17
2017-09-04T19:39:58.511Z,54.24
2017-09-04T19:42:26.020Z,54.26
2017-09-04T19:44:53.465Z,54.81
2017-09-04T19:47:20.955Z,54.89
2017-09-04T19:49:48.402Z,54.56
2017-09-04T19:52:15.873Z,54.36
2017-09-04T19:54:43.352Z,54.27
2017-09-04T19:57:10.819Z,54.14
2017-09-04T19:59:38.308Z,54.11
2017-09-04T20:02:05.942Z,54.06
2017-09-04T20:04:33.397Z,54.06
2017-09-04T20:07:00.866Z,54.14
2017-09-04T20:09:28.365Z,54.09
2017-09-04T20:11:55.823Z,54.26
2017-09-04T20:14:23.305Z,54.22
2017-09-04T20:16:50.785Z,54.11
2017-09-04T20:19:18.272Z,54.06
2017-09-04T20:21:45.721Z,54.19
2017-09-04T20:24:13.186Z,54.29
2017-09-04T20:26:40.657Z,54.10
2017-09-04T20:29:08.127Z,54.02
2017-09-04T20:31:35.615Z,54.03
2017-09-04T20:34:03.083Z,53.99
2017-09-04T20:36:30.572Z,53.94
2017-09-04T20:38:58.046Z,53.96
2017-09-04T20:41:26.337Z,53.95
2017-09-04T20:43:53.792Z,53.95
2017-09-04T20:46:21.278Z,53.99
2017-09-04T20:48:48.760Z,54.10
2017-09-04T20:51:16.218Z,54.17
2017-09-04T20:53:43.709Z,54.29
2017-09-04T20:56:11.176Z,54.23
2017-09-04T20:58:38.670Z,54.14
2017-09-04T21:01:06.115Z,54.18
2017-09-04T21:03:33.590Z,54.36
2017-09-04T21:06:01.051Z,54.33
2017-09-04T21:08:28.542Z,54.60
2017-09-04T21:10:56.018Z,54.58
2017-09-04T21:13:23.477Z,54.47
2017-09-04T21:15:50.957Z,54.57
2017-09-04T21:18:18.414Z,54.71
2017-09-04T21:20:45.894Z,54.62
2017-09-04T21:23:13.366Z,54.77
2017-09-04T21:25:40.845Z,54.85
2017-09-04T21:28:08.333Z,54.93
2017-09-04T21:30:35.798Z,54.66
2017-09-04T21:33:03.304Z,54.76
2017-09-04T21:35:30.765Z,54.91
2017-09-04T21:37:58.258Z,55.09
2017-09-04T21:40:25.705Z,55.11
2017-09-04T21:42:53.180Z,55.09
2017-09-04T21:45:20.669Z,55.11
2017-09-04T21:47:48.406Z,55.28
2017-09-04T21:50:15.914Z,55.33
2017-09-04T21:52:43.379Z,55.34
2017-09-04T21:55:10.867Z,55.37
2017-09-04T21:57:38.335Z,55.36
2017-09-04T22:00:05.826Z,55.44
2017-09-04T22:02:33.288Z,55.55
2017-09-04T22:05:00.768Z,55.64
2017-09-04T22:07:28.233Z,55.73
2017-09-04T22:09:55.700Z,55.87
2017-09-04T22:12:23.173Z,55.91
2017-09-04T22:14:50.775Z,55.86
2017-09-04T22:17:18.259Z,55.96
2017-09-04T22:19:45.716Z,55.94
2017-09-04T22:22:13.303Z,55.98
2017-09-04T22:24:40.749Z,56.02
2017-09-04T22:27:08.220Z,56.01
2017-09-04T22:29:35.712Z,56.03
2017-09-04T22:32:03.171Z,55.96
2017-09-04T22:34:30.661Z,55.92
2017-09-04T22:36:58.110Z,55.99
2017-09-04T22:39:25.607Z,56.07
2017-09-04T22:41:53.062Z,56.05
2017-09-04T22:44:20.561Z,56.41
2017-09-04T22:46:48.018Z,56.27
2017-09-04T22:49:15.497Z,56.31
2017-09-04T22:51:42.966Z,56.39
2017-09-04T22:54:10.441Z,56.27
2017-09-04T22:56:37.925Z,56.38
2017-09-04T22:59:05.382Z,56.34
2017-09-04T23:01:32.864Z,56.31
2017-09-04T23:04:00.310Z,56.29
2017-09-04T23:06:28.121Z,56.38
2017-09-04T23:08:55.586Z,56.22
2017-09-04T23:11:23.079Z,56.41
2017-09-04T23:13:50.533Z,56.51
2017-09-04T23:16:18.001Z,56.43
2017-09-04T23:18:45.497Z,56.35
2017-09-04T23:21:12.951Z,56.25
2017-09-04T23:23:40.426Z,56.34
2017-09-04T23:26:07.885Z,56.35
2017-09-04T23:28:35.355Z,56.31
2017-09-04T23:31:02.811Z,56.28
2017-09-04T23:33:30.292Z,56.24
2017-09-04T23:35:57.749Z,56.15
2017-09-04T23:38:25.368Z,56.14
2017-09-04T23:40:52.813Z,56.14
2017-09-04T23:43:20.270Z,56.11
2017-09-04T23:45:47.755Z,56.13
2017-09-04T23:48:15.228Z,56.13
2017-09-04T23:50:42.719Z,56.14
2017-09-04T23:53:10.179Z,56.21
2017-09-04T23:55:37.674Z,56.29
2017-09-04T23:58:05.131Z,56.42
